sensor_id;sensor_type;location;lat;lon;timestamp;pressure;altitude;pressure_sealevel;temperature;humidity
21879;BME280;27908;42.708;23.278;2023-04-15T00:00:12;63295.88;;;7.82;100.00
21879;BME280;27908;42.708;23.278;2023-04-15T00:02:37;63277.19;;;7.89;100.00
21879;BME280;27908;42.708;23.278;2023-04-15T00:05:04;63246.28;;;7.96;100.00
21879;BME280;27908;42.708;23.278;2023-04-15T00:07:30;63313.44;;;8.09;100.00
21879;BME280;27908;42.708;23.278;2023-04-15T00:09:56;63305.38;;;8.16;100.00
21879;BME280;27908;42.708;23.278;2023-04-15T00:12:23;63332.38;;;8.25;100.00
21879;BME280;27908;42.708;23.278;2023-04-15T00:14:48;63350.69;;;8.28;100.00
21879;BME280;27908;42.708;23.278;2023-04-15T00:17:14;63322.22;;;8.25;100.00
21879;BME280;27908;42.708;23.278;2023-04-15T00:19:40;63345.25;;;8.42;100.00
21879;BME280;27908;42.708;23.278;2023-04-15T00:22:05;63375.28;;;8.51;100.00
21879;BME280;27908;42.708;23.278;2023-04-15T00:24:31;63364.63;;;8.51;100.00
21879;BME280;27908;42.708;23.278;2023-04-15T00:26:57;63372.84;;;8.59;100.00
21879;BME280;27908;42.708;23.278;2023-04-15T00:29:23;63378.91;;;8.57;100.00
21879;BME280;27908;42.708;23.278;2023-04-15T00:31:48;63349.97;;;8.56;100.00
21879;BME280;27908;42.708;23.278;2023-04-15T00:34:16;63311.28;;;8.49;100.00
21879;BME280;27908;42.708;23.278;2023-04-15T00:36:42;63392.66;;;8.61;100.00
21879;BME280;27908;42.708;23.278;2023-04-15T00:39:08;63346.81;;;8.46;100.00
21879;BME280;27908;42.708;23.278;2023-04-15T00:41:33;63345.91;;;8.57;100.00
21879;BME280;27908;42.708;23.278;2023-04-15T00:44:00;63352.50;;;8.56;100.00
21879;BME280;27908;42.708;23.278;2023-04-15T00:46:27;63316.38;;;8.49;100.00
21879;BME280;27908;42.708;23.278;2023-04-15T00:48:53;63336.66;;;8.46;100.00
21879;BME280;27908;42.708;23.278;2023-04-15T00:51:19;63346.78;;;8.44;100.00
21879;BME280;27908;42.708;23.278;2023-04-15T00:53:45;63325.31;;;8.28;100.00
21879;BME280;27908;42.708;23.278;2023-04-15T00:56:13;63331.13;;;8.07;100.00
21879;BME280;27908;42.708;23.278;2023-04-15T00:58:38;63310.31;;;8.06;100.00
21879;BME280;27908;42.708;23.278;2023-04-15T01:01:04;63257.72;;;7.73;100.00
21879;BME280;27908;42.708;23.278;2023-04-15T01:03:30;63281.06;;;7.73;100.00
21879;BME280;27908;42.708;23.278;2023-04-15T01:05:55;63276.50;;;7.74;100.00
21879;BME280;27908;42.708;23.278;2023-04-15T01:08:27;63241.53;;;7.77;100.00
21879;BME280;27908;42.708;23.278;2023-04-15T01:10:57;63268.44;;;7.78;100.00
21879;BME280;27908;42.708;23.278;2023-04-15T01:13:28;63214.94;;;7.53;100.00
21879;BME280;27908;42.708;23.278;2023-04-15T01:15:55;63254.09;;;7.64;100.00
21879;BME280;27908;42.708;23.278;2023-04-15T01:18:22;63207.72;;;7.44;100.00
21879;BME280;27908;42.708;23.278;2023-04-15T01:20:48;63273.69;;;7.49;100.00
21879;BME280;27908;42.708;23.278;2023-04-15T01:23:14;63257.06;;;7.57;100.00
21879;BME280;27908;42.708;23.278;2023-04-15T01:25:42;63267.78;;;7.65;100.00
21879;BME280;27908;42.708;23.278;2023-04-15T01:28:08;63237.31;;;7.60;100.00
21879;BME280;27908;42.708;23.278;2023-04-15T01:30:35;63267.59;;;7.48;100.00
21879;BME280;27908;42.708;23.278;2023-04-15T01:33:00;63228.00;;;7.44;100.00
21879;BME280;27908;42.708;23.278;2023-04-15T01:35:26;63258.06;;;7.56;100.00
21879;BME280;27908;42.708;23.278;2023-04-15T01:37:53;63262.16;;;7.62;100.00
21879;BME280;27908;42.708;23.278;2023-04-15T01:40:19;63273.38;;;7.66;100.00
21879;BME280;27908;42.708;23.278;2023-04-15T01:42:44;63178.59;;;7.21;100.00
21879;BME280;27908;42.708;23.278;2023-04-15T01:45:10;63215.50;;;7.12;100.00
21879;BME280;27908;42.708;23.278;2023-04-15T01:47:37;63120.56;;;6.92;100.00
21879;BME280;27908;42.708;23.278;2023-04-15T01:50:03;63167.28;;;7.05;100.00
21879;BME280;27908;42.708;23.278;2023-04-15T01:52:28;63216.97;;;7.07;100.00
21879;BME280;27908;42.708;23.278;2023-04-15T01:54:54;63178.09;;;7.18;100.00
21879;BME280;27908;42.708;23.278;2023-04-15T01:57:19;63227.84;;;6.85;100.00
21879;BME280;27908;42.708;23.278;2023-04-15T01:59:45;63176.75;;;6.90;100.00
21879;BME280;27908;42.708;23.278;2023-04-15T02:02:11;63141.31;;;6.90;100.00
21879;BME280;27908;42.708;23.278;2023-04-15T02:04:36;63142.31;;;6.91;100.00
21879;BME280;27908;42.708;23.278;2023-04-15T02:07:02;63170.13;;;6.86;100.00
21879;BME280;27908;42.708;23.278;2023-04-15T02:09:27;63202.03;;;6.87;100.00
21879;BME280;27908;42.708;23.278;2023-04-15T02:11:53;63145.28;;;6.84;100.00
21879;BME280;27908;42.708;23.278;2023-04-15T02:14:18;63140.56;;;6.67;100.00
21879;BME280;27908;42.708;23.278;2023-04-15T02:16:44;63118.25;;;6.65;100.00
21879;BME280;27908;42.708;23.278;2023-04-15T02:19:09;63086.19;;;6.49;100.00
21879;BME280;27908;42.708;23.278;2023-04-15T02:21:35;63101.81;;;6.42;100.00
21879;BME280;27908;42.708;23.278;2023-04-15T02:24:00;63079.97;;;6.33;100.00
21879;BME280;27908;42.708;23.278;2023-04-15T02:26:26;63090.84;;;6.14;100.00
21879;BME280;27908;42.708;23.278;2023-04-15T02:28:53;63046.72;;;6.01;100.00
21879;BME280;27908;42.708;23.278;2023-04-15T02:31:18;63077.25;;;6.18;100.00
21879;BME280;27908;42.708;23.278;2023-04-15T02:33:45;63052.84;;;6.04;100.00
21879;BME280;27908;42.708;23.278;2023-04-15T02:36:10;63008.78;;;5.99;100.00
21879;BME280;27908;42.708;23.278;2023-04-15T02:38:36;63008.78;;;5.99;100.00
21879;BME280;27908;42.708;23.278;2023-04-15T02:41:02;63020.38;;;5.98;100.00
21879;BME280;27908;42.708;23.278;2023-04-15T02:43:28;63030.28;;;5.78;100.00
21879;BME280;27908;42.708;23.278;2023-04-15T02:45:54;63051.72;;;5.96;100.00
21879;BME280;27908;42.708;23.278;2023-04-15T02:48:20;63024.88;;;5.92;100.00
21879;BME280;27908;42.708;23.278;2023-04-15T02:50:46;63021.84;;;5.92;100.00
21879;BME280;27908;42.708;23.278;2023-04-15T02:53:12;62982.59;;;5.64;100.00
21879;BME280;27908;42.708;23.278;2023-04-15T02:55:39;63016.19;;;5.84;100.00
21879;BME280;27908;42.708;23.278;2023-04-15T02:58:06;63018.41;;;5.59;100.00
21879;BME280;27908;42.708;23.278;2023-04-15T03:00:31;63010.22;;;5.49;100.00
21879;BME280;27908;42.708;23.278;2023-04-15T03:03:04;63036.34;;;5.79;100.00
21879;BME280;27908;42.708;23.278;2023-04-15T03:05:30;63020.28;;;5.46;100.00
21879;BME280;27908;42.708;23.278;2023-04-15T03:07:55;62982.84;;;5.39;100.00
21879;BME280;27908;42.708;23.278;2023-04-15T03:10:21;63039.91;;;5.41;100.00
21879;BME280;27908;42.708;23.278;2023-04-15T03:12:46;62999.56;;;5.46;100.00
21879;BME280;27908;42.708;23.278;2023-04-15T03:15:12;62977.81;;;5.42;100.00
21879;BME280;27908;42.708;23.278;2023-04-15T03:17:38;62978.41;;;5.50;100.00
21879;BME280;27908;42.708;23.278;2023-04-15T03:20:04;62976.44;;;5.55;100.00
21879;BME280;27908;42.708;23.278;2023-04-15T03:22:31;62975.91;;;5.55;100.00
21879;BME280;27908;42.708;23.278;2023-04-15T03:24:56;63012.31;;;5.56;100.00
21879;BME280;27908;42.708;23.278;2023-04-15T03:27:22;63019.84;;;5.51;100.00
21879;BME280;27908;42.708;23.278;2023-04-15T03:29:47;63003.06;;;5.42;100.00
21879;BME280;27908;42.708;23.278;2023-04-15T03:32:13;62989.28;;;5.31;100.00
21879;BME280;27908;42.708;23.278;2023-04-15T03:34:40;62951.06;;;5.01;100.00
21879;BME280;27908;42.708;23.278;2023-04-15T03:37:06;62957.84;;;5.20;100.00
21879;BME280;27908;42.708;23.278;2023-04-15T03:39:31;62955.78;;;5.16;100.00
21879;BME280;27908;42.708;23.278;2023-04-15T03:41:57;62910.25;;;5.08;100.00
21879;BME280;27908;42.708;23.278;2023-04-15T03:44:25;62915.59;;;4.89;100.00
21879;BME280;27908;42.708;23.278;2023-04-15T03:46:50;63013.91;;;4.82;100.00
21879;BME280;27908;42.708;23.278;2023-04-15T03:49:16;62933.75;;;4.87;100.00
21879;BME280;27908;42.708;23.278;2023-04-15T03:51:41;62875.59;;;4.77;100.00
21879;BME280;27908;42.708;23.278;2023-04-15T03:54:06;62884.59;;;4.71;100.00
21879;BME280;27908;42.708;23.278;2023-04-15T03:56:32;62941.25;;;4.82;100.00
21879;BME280;27908;42.708;23.278;2023-04-15T03:58:57;62916.59;;;4.90;100.00
21879;BME280;27908;42.708;23.278;2023-04-15T04:01:23;62948.34;;;4.84;100.00
21879;BME280;27908;42.708;23.278;2023-04-15T04:03:48;62984.78;;;4.93;100.00
21879;BME280;27908;42.708;23.278;2023-04-15T04:06:14;62895.56;;;4.60;100.00
21879;BME280;27908;42.708;23.278;2023-04-15T04:08:39;62881.59;;;4.73;100.00
21879;BME280;27908;42.708;23.278;2023-04-15T04:11:05;62880.00;;;4.67;100.00
21879;BME280;27908;42.708;23.278;2023-04-15T04:13:31;62938.63;;;4.75;100.00
21879;BME280;27908;42.708;23.278;2023-04-15T04:15:56;62904.31;;;4.76;100.00
21879;BME280;27908;42.708;23.278;2023-04-15T04:18:22;62906.09;;;4.56;100.00
21879;BME280;27908;42.708;23.278;2023-04-15T04:20:47;62909.69;;;4.61;100.00
21879;BME280;27908;42.708;23.278;2023-04-15T04:23:13;62922.00;;;4.78;100.00
21879;BME280;27908;42.708;23.278;2023-04-15T04:25:38;62925.66;;;4.87;100.00
21879;BME280;27908;42.708;23.278;2023-04-15T04:28:03;62926.63;;;4.83;100.00
21879;BME280;27908;42.708;23.278;2023-04-15T04:30:29;62885.59;;;4.72;100.00
21879;BME280;27908;42.708;23.278;2023-04-15T04:32:54;62960.41;;;4.81;100.00
21879;BME280;27908;42.708;23.278;2023-04-15T04:35:20;62971.75;;;4.99;100.00
21879;BME280;27908;42.708;23.278;2023-04-15T04:37:46;62933.94;;;5.04;100.00
21879;BME280;27908;42.708;23.278;2023-04-15T04:40:11;62938.44;;;4.99;100.00
21879;BME280;27908;42.708;23.278;2023-04-15T04:42:37;62963.34;;;5.13;100.00
21879;BME280;27908;42.708;23.278;2023-04-15T04:45:02;63021.16;;;5.74;100.00
21879;BME280;27908;42.708;23.278;2023-04-15T04:47:28;63012.78;;;5.95;100.00
21879;BME280;27908;42.708;23.278;2023-04-15T04:49:54;63057.06;;;6.21;100.00
21879;BME280;27908;42.708;23.278;2023-04-15T04:52:19;63090.91;;;6.17;100.00
21879;BME280;27908;42.708;23.278;2023-04-15T04:54:45;63096.63;;;6.32;100.00
21879;BME280;27908;42.708;23.278;2023-04-15T04:57:11;63097.06;;;6.25;100.00
21879;BME280;27908;42.708;23.278;2023-04-15T04:59:37;63098.16;;;6.31;100.00
21879;BME280;27908;42.708;23.278;2023-04-15T05:02:03;63107.84;;;6.40;100.00
21879;BME280;27908;42.708;23.278;2023-04-15T05:04:28;63096.28;;;6.46;100.00
21879;BME280;27908;42.708;23.278;2023-04-15T05:06:55;63092.28;;;6.50;100.00
21879;BME280;27908;42.708;23.278;2023-04-15T05:09:20;63132.75;;;6.50;100.00
21879;BME280;27908;42.708;23.278;2023-04-15T05:11:46;63101.97;;;6.57;100.00
21879;BME280;27908;42.708;23.278;2023-04-15T05:14:11;63109.06;;;6.59;100.00
21879;BME280;27908;42.708;23.278;2023-04-15T05:16:37;63104.47;;;6.54;100.00
21879;BME280;27908;42.708;23.278;2023-04-15T05:19:02;63158.84;;;6.72;100.00
21879;BME280;27908;42.708;23.278;2023-04-15T05:21:28;63140.25;;;6.86;100.00
21879;BME280;27908;42.708;23.278;2023-04-15T05:23:53;63216.78;;;6.92;100.00
21879;BME280;27908;42.708;23.278;2023-04-15T05:26:18;63171.81;;;7.02;100.00
21879;BME280;27908;42.708;23.278;2023-04-15T05:28:44;63186.41;;;6.92;100.00
21879;BME280;27908;42.708;23.278;2023-04-15T05:31:10;63184.66;;;7.17;100.00
21879;BME280;27908;42.708;23.278;2023-04-15T05:33:35;63179.13;;;7.21;100.00
21879;BME280;27908;42.708;23.278;2023-04-15T05:36:01;63204.97;;;7.22;100.00
21879;BME280;27908;42.708;23.278;2023-04-15T05:38:26;63203.06;;;7.32;100.00
21879;BME280;27908;42.708;23.278;2023-04-15T05:40:52;63212.25;;;7.39;100.00
21879;BME280;27908;42.708;23.278;2023-04-15T05:43:17;63267.78;;;7.63;100.00
21879;BME280;27908;42.708;23.278;2023-04-15T05:45:42;63253.09;;;7.68;100.00
21879;BME280;27908;42.708;23.278;2023-04-15T05:48:08;63284.25;;;7.86;100.00
21879;BME280;27908;42.708;23.278;2023-04-15T05:50:33;63278.81;;;8.00;100.00
21879;BME280;27908;42.708;23.278;2023-04-15T05:52:59;63331.63;;;8.05;100.00
21879;BME280;27908;42.708;23.278;2023-04-15T05:55:24;63301.66;;;8.03;100.00
21879;BME280;27908;42.708;23.278;2023-04-15T05:57:50;63348.66;;;8.31;100.00
21879;BME280;27908;42.708;23.278;2023-04-15T06:00:16;63368.13;;;8.45;100.00
21879;BME280;27908;42.708;23.278;2023-04-15T06:02:41;63385.50;;;8.56;100.00
21879;BME280;27908;42.708;23.278;2023-04-15T06:05:07;63429.91;;;8.77;100.00
21879;BME280;27908;42.708;23.278;2023-04-15T06:07:37;63435.13;;;8.87;100.00
21879;BME280;27908;42.708;23.278;2023-04-15T06:10:03;63397.72;;;9.10;100.00
21879;BME280;27908;42.708;23.278;2023-04-15T06:12:29;63451.25;;;9.24;99.19
21879;BME280;27908;42.708;23.278;2023-04-15T06:14:54;63505.78;;;9.35;98.89
21879;BME280;27908;42.708;23.278;2023-04-15T06:17:20;63464.34;;;9.13;95.45
21879;BME280;27908;42.708;23.278;2023-04-15T06:19:45;63430.41;;;9.26;93.48
21879;BME280;27908;42.708;23.278;2023-04-15T06:22:11;63467.69;;;9.43;94.77
21879;BME280;27908;42.708;23.278;2023-04-15T06:24:36;63521.28;;;9.60;95.17
21879;BME280;27908;42.708;23.278;2023-04-15T06:27:02;63560.69;;;9.81;94.89
21879;BME280;27908;42.708;23.278;2023-04-15T06:29:27;63533.25;;;9.86;92.24
21879;BME280;27908;42.708;23.278;2023-04-15T06:31:53;63538.50;;;9.98;92.49
21879;BME280;27908;42.708;23.278;2023-04-15T06:34:18;63581.81;;;10.03;92.50
21879;BME280;27908;42.708;23.278;2023-04-15T06:36:44;63558.97;;;10.08;90.41
21879;BME280;27908;42.708;23.278;2023-04-15T06:39:09;63584.34;;;10.01;90.91
21879;BME280;27908;42.708;23.278;2023-04-15T06:41:35;63575.41;;;10.24;90.36
21879;BME280;27908;42.708;23.278;2023-04-15T06:44:00;63581.50;;;10.23;88.81
21879;BME280;27908;42.708;23.278;2023-04-15T06:46:26;63583.97;;;10.15;87.28
21879;BME280;27908;42.708;23.278;2023-04-15T06:48:51;63638.63;;;10.29;87.97
21879;BME280;27908;42.708;23.278;2023-04-15T06:51:17;63627.59;;;10.47;88.09
21879;BME280;27908;42.708;23.278;2023-04-15T06:53:42;63601.13;;;10.49;84.23
21879;BME280;27908;42.708;23.278;2023-04-15T06:56:08;63624.19;;;10.66;86.93
21879;BME280;27908;42.708;23.278;2023-04-15T06:58:33;63679.44;;;10.85;87.16
21879;BME280;27908;42.708;23.278;2023-04-15T07:00:59;63702.09;;;11.06;84.16
21879;BME280;27908;42.708;23.278;2023-04-15T07:03:25;63739.09;;;11.37;81.78
21879;BME280;27908;42.708;23.278;2023-04-15T07:05:51;63789.84;;;11.56;85.43
21879;BME280;27908;42.708;23.278;2023-04-15T07:08:17;63824.75;;;11.75;81.88
21879;BME280;27908;42.708;23.278;2023-04-15T07:10:43;63811.59;;;11.87;78.66
21879;BME280;27908;42.708;23.278;2023-04-15T07:13:08;63834.13;;;11.94;77.59
21879;BME280;27908;42.708;23.278;2023-04-15T07:15:34;63886.97;;;12.15;79.74
21879;BME280;27908;42.708;23.278;2023-04-15T07:17:59;63859.50;;;12.30;72.82
21879;BME280;27908;42.708;23.278;2023-04-15T07:20:25;63923.50;;;12.40;76.35
21879;BME280;27908;42.708;23.278;2023-04-15T07:22:51;63907.75;;;12.49;71.73
21879;BME280;27908;42.708;23.278;2023-04-15T07:25:17;63893.25;;;12.31;72.38
21879;BME280;27908;42.708;23.278;2023-04-15T07:27:43;63950.31;;;12.63;73.73
21879;BME280;27908;42.708;23.278;2023-04-15T07:30:09;64005.56;;;13.14;76.73
21879;BME280;27908;42.708;23.278;2023-04-15T07:32:35;64057.47;;;13.34;73.23
21879;BME280;27908;42.708;23.278;2023-04-15T07:35:00;64106.53;;;13.76;71.25
21879;BME280;27908;42.708;23.278;2023-04-15T07:37:27;64144.78;;;14.07;68.62
21879;BME280;27908;42.708;23.278;2023-04-15T07:39:53;64167.50;;;14.24;70.05
21879;BME280;27908;42.708;23.278;2023-04-15T07:42:19;64219.53;;;14.47;66.00
21879;BME280;27908;42.708;23.278;2023-04-15T07:44:44;64217.56;;;14.57;61.14
21879;BME280;27908;42.708;23.278;2023-04-15T07:47:10;64189.13;;;14.32;57.98
21879;BME280;27908;42.708;23.278;2023-04-15T07:49:36;64217.81;;;14.30;59.31
21879;BME280;27908;42.708;23.278;2023-04-15T07:52:01;64215.25;;;14.30;56.22
21879;BME280;27908;42.708;23.278;2023-04-15T07:54:27;64139.25;;;14.19;56.26
21879;BME280;27908;42.708;23.278;2023-04-15T07:56:52;64181.81;;;14.21;55.11
21879;BME280;27908;42.708;23.278;2023-04-15T07:59:18;64163.38;;;14.20;55.46
21879;BME280;27908;42.708;23.278;2023-04-15T08:01:43;64215.38;;;14.43;56.86
21879;BME280;27908;42.708;23.278;2023-04-15T08:04:09;64222.09;;;14.47;55.29
21879;BME280;27908;42.708;23.278;2023-04-15T08:06:34;64240.06;;;14.49;55.21
21879;BME280;27908;42.708;23.278;2023-04-15T08:09:00;64226.72;;;14.46;52.60
21879;BME280;27908;42.708;23.278;2023-04-15T08:11:26;64181.50;;;14.40;51.87
21879;BME280;27908;42.708;23.278;2023-04-15T08:13:51;64357.53;;;14.49;53.45
21879;BME280;27908;42.708;23.278;2023-04-15T08:16:20;64202.78;;;14.65;52.52
21879;BME280;27908;42.708;23.278;2023-04-15T08:18:47;64198.88;;;14.34;49.38
21879;BME280;27908;42.708;23.278;2023-04-15T08:21:13;64179.69;;;14.11;50.16
21879;BME280;27908;42.708;23.278;2023-04-15T08:23:39;64189.56;;;14.25;49.44
21879;BME280;27908;42.708;23.278;2023-04-15T08:26:05;64219.00;;;14.46;51.10
21879;BME280;27908;42.708;23.278;2023-04-15T08:28:30;64130.47;;;14.11;48.06
21879;BME280;27908;42.708;23.278;2023-04-15T08:30:56;64200.31;;;14.23;48.97
21879;BME280;27908;42.708;23.278;2023-04-15T08:33:21;64145.81;;;14.08;50.81
21879;BME280;27908;42.708;23.278;2023-04-15T08:35:48;64121.00;;;13.87;52.77
21879;BME280;27908;42.708;23.278;2023-04-15T08:38:13;64135.34;;;13.86;53.91
21879;BME280;27908;42.708;23.278;2023-04-15T08:40:43;64149.75;;;13.95;55.05
21879;BME280;27908;42.708;23.278;2023-04-15T08:43:12;64108.91;;;14.07;54.43
21879;BME280;27908;42.708;23.278;2023-04-15T08:45:40;64166.84;;;14.11;53.46
21879;BME280;27908;42.708;23.278;2023-04-15T08:48:06;64180.75;;;14.17;52.71
21879;BME280;27908;42.708;23.278;2023-04-15T08:50:34;64174.72;;;14.26;53.50
21879;BME280;27908;42.708;23.278;2023-04-15T08:53:00;64153.59;;;14.16;52.48
21879;BME280;27908;42.708;23.278;2023-04-15T08:55:31;64235.66;;;14.18;51.72
21879;BME280;27908;42.708;23.278;2023-04-15T08:58:03;64229.09;;;14.29;53.55
21879;BME280;27908;42.708;23.278;2023-04-15T09:00:30;64195.13;;;14.19;50.79
21879;BME280;27908;42.708;23.278;2023-04-15T09:02:57;64145.31;;;14.08;50.90
21879;BME280;27908;42.708;23.278;2023-04-15T09:05:23;64219.78;;;14.20;50.69
21879;BME280;27908;42.708;23.278;2023-04-15T09:07:51;64220.09;;;14.52;50.09
21879;BME280;27908;42.708;23.278;2023-04-15T09:10:17;64247.97;;;14.69;50.12
21879;BME280;27908;42.708;23.278;2023-04-15T09:12:42;64339.88;;;15.22;51.25
21879;BME280;27908;42.708;23.278;2023-04-15T09:15:10;64342.56;;;15.32;48.25
21879;BME280;27908;42.708;23.278;2023-04-15T09:17:41;64359.91;;;15.19;48.02
21879;BME280;27908;42.708;23.278;2023-04-15T09:22:38;64308.72;;;14.88;48.18
21879;BME280;27908;42.708;23.278;2023-04-15T09:25:06;64285.59;;;14.85;48.07
21879;BME280;27908;42.708;23.278;2023-04-15T09:27:57;64316.56;;;15.02;50.79
21879;BME280;27908;42.708;23.278;2023-04-15T09:30:23;64340.88;;;15.21;49.01
21879;BME280;27908;42.708;23.278;2023-04-15T09:32:54;64341.09;;;15.43;46.59
21879;BME280;27908;42.708;23.278;2023-04-15T09:35:21;64425.22;;;15.76;45.39
21879;BME280;27908;42.708;23.278;2023-04-15T09:37:48;64497.91;;;15.97;46.46
21879;BME280;27908;42.708;23.278;2023-04-15T09:40:13;64498.22;;;16.26;44.30
21879;BME280;27908;42.708;23.278;2023-04-15T09:43:06;64560.19;;;16.46;42.75
21879;BME280;27908;42.708;23.278;2023-04-15T09:45:32;64570.59;;;16.56;42.77
21879;BME280;27908;42.708;23.278;2023-04-15T09:48:13;64573.72;;;16.59;43.36
21879;BME280;27908;42.708;23.278;2023-04-15T09:50:40;64586.16;;;16.66;43.86
21879;BME280;27908;42.708;23.278;2023-04-15T09:53:09;64633.06;;;16.71;39.27
21879;BME280;27908;42.708;23.278;2023-04-15T09:55:35;64638.84;;;16.81;40.64
21879;BME280;27908;42.708;23.278;2023-04-15T09:58:00;64592.13;;;16.47;39.55
21879;BME280;27908;42.708;23.278;2023-04-15T10:00:26;64584.63;;;16.69;41.33
21879;BME280;27908;42.708;23.278;2023-04-15T10:02:53;64550.91;;;16.44;41.99
21879;BME280;27908;42.708;23.278;2023-04-15T10:05:19;64574.13;;;16.49;40.12
21879;BME280;27908;42.708;23.278;2023-04-15T10:07:45;64663.13;;;16.90;42.27
21879;BME280;27908;42.708;23.278;2023-04-15T10:10:11;64619.56;;;17.12;37.77
21879;BME280;27908;42.708;23.278;2023-04-15T10:12:40;64712.94;;;17.20;38.59
21879;BME280;27908;42.708;23.278;2023-04-15T10:15:07;64769.91;;;17.42;38.53
21879;BME280;27908;42.708;23.278;2023-04-15T10:17:34;64669.53;;;17.10;38.51
21879;BME280;27908;42.708;23.278;2023-04-15T10:20:02;64636.22;;;17.25;38.51
21879;BME280;27908;42.708;23.278;2023-04-15T10:22:29;64699.72;;;17.37;38.04
21879;BME280;27908;42.708;23.278;2023-04-15T10:24:55;64688.78;;;17.24;38.12
21879;BME280;27908;42.708;23.278;2023-04-15T10:27:21;64579.88;;;16.57;38.44
21879;BME280;27908;42.708;23.278;2023-04-15T10:29:48;64728.81;;;17.13;40.34
21879;BME280;27908;42.708;23.278;2023-04-15T10:32:14;64698.66;;;17.33;38.51
21879;BME280;27908;42.708;23.278;2023-04-15T10:34:41;64718.44;;;17.52;38.34
21879;BME280;27908;42.708;23.278;2023-04-15T10:37:09;64759.63;;;17.47;39.24
21879;BME280;27908;42.708;23.278;2023-04-15T10:42:20;64750.34;;;17.45;38.18
21879;BME280;27908;42.708;23.278;2023-04-15T10:44:49;64734.47;;;17.57;39.23
21879;BME280;27908;42.708;23.278;2023-04-15T10:47:20;64784.19;;;17.75;39.51
21879;BME280;27908;42.708;23.278;2023-04-15T10:49:51;64967.09;;;17.60;39.26
21879;BME280;27908;42.708;23.278;2023-04-15T10:52:27;64753.66;;;17.68;40.50
21879;BME280;27908;42.708;23.278;2023-04-15T10:55:15;64751.75;;;17.81;39.36
21879;BME280;27908;42.708;23.278;2023-04-15T10:57:43;64796.00;;;17.72;38.83
21879;BME280;27908;42.708;23.278;2023-04-15T11:00:16;64823.66;;;18.00;39.08
21879;BME280;27908;42.708;23.278;2023-04-15T11:05:17;64741.84;;;17.72;39.79
21879;BME280;27908;42.708;23.278;2023-04-15T11:13:03;64765.25;;;17.89;39.40
21879;BME280;27908;42.708;23.278;2023-04-15T11:15:48;64839.28;;;18.10;39.46
21879;BME280;27908;42.708;23.278;2023-04-15T11:18:21;64830.69;;;17.82;40.50
21879;BME280;27908;42.708;23.278;2023-04-15T11:21:06;64773.88;;;17.75;40.14
21879;BME280;27908;42.708;23.278;2023-04-15T11:23:41;64836.16;;;18.07;40.05
21879;BME280;27908;42.708;23.278;2023-04-15T11:26:13;64817.56;;;18.07;39.51
21879;BME280;27908;42.708;23.278;2023-04-15T11:28:40;64842.34;;;18.08;39.07
21879;BME280;27908;42.708;23.278;2023-04-15T11:31:14;64901.56;;;18.40;39.09
21879;BME280;27908;42.708;23.278;2023-04-15T11:36:10;64977.25;;;18.65;39.18
21879;BME280;27908;42.708;23.278;2023-04-15T11:38:36;64966.41;;;18.67;36.14
21879;BME280;27908;42.708;23.278;2023-04-15T11:41:02;64998.47;;;18.68;37.98
21879;BME280;27908;42.708;23.278;2023-04-15T11:43:30;65099.38;;;19.19;37.86
21879;BME280;27908;42.708;23.278;2023-04-15T11:45:58;65034.50;;;18.99;35.51
21879;BME280;27908;42.708;23.278;2023-04-15T11:48:25;65009.94;;;18.76;37.09
21879;BME280;27908;42.708;23.278;2023-04-15T11:50:59;65065.13;;;19.09;36.85
21879;BME280;27908;42.708;23.278;2023-04-15T11:53:40;65068.94;;;19.25;36.23
21879;BME280;27908;42.708;23.278;2023-04-15T11:56:07;65104.53;;;19.17;35.08
21879;BME280;27908;42.708;23.278;2023-04-15T11:58:35;65057.84;;;19.04;35.49
21879;BME280;27908;42.708;23.278;2023-04-15T12:01:04;65073.66;;;19.29;36.64
21879;BME280;27908;42.708;23.278;2023-04-15T12:06:22;65079.38;;;19.34;36.00
21879;BME280;27908;42.708;23.278;2023-04-15T12:08:51;65068.53;;;19.34;34.23
21879;BME280;27908;42.708;23.278;2023-04-15T12:11:18;65093.97;;;19.43;33.96
21879;BME280;27908;42.708;23.278;2023-04-15T12:13:48;65102.13;;;19.31;35.38
21879;BME280;27908;42.708;23.278;2023-04-15T12:16:19;65013.97;;;19.12;34.47
21879;BME280;27908;42.708;23.278;2023-04-15T12:18:46;64991.00;;;18.92;35.00
21879;BME280;27908;42.708;23.278;2023-04-15T12:21:12;65076.03;;;19.14;34.48
21879;BME280;27908;42.708;23.278;2023-04-15T12:23:39;65017.81;;;18.86;34.08
21879;BME280;27908;42.708;23.278;2023-04-15T12:26:11;64996.06;;;18.83;34.34
21879;BME280;27908;42.708;23.278;2023-04-15T12:28:39;65002.47;;;18.98;33.85
21879;BME280;27908;42.708;23.278;2023-04-15T12:31:08;65099.94;;;19.22;35.25
21879;BME280;27908;42.708;23.278;2023-04-15T12:33:34;65134.41;;;19.50;35.10
21879;BME280;27908;42.708;23.278;2023-04-15T12:36:00;65146.00;;;19.68;37.28
21879;BME280;27908;42.708;23.278;2023-04-15T12:38:25;65217.81;;;19.97;35.80
21879;BME280;27908;42.708;23.278;2023-04-15T12:40:50;65197.00;;;19.89;35.01
21879;BME280;27908;42.708;23.278;2023-04-15T12:43:16;65205.78;;;19.88;33.89
21879;BME280;27908;42.708;23.278;2023-04-15T12:45:41;65118.94;;;19.55;34.00
21879;BME280;27908;42.708;23.278;2023-04-15T12:48:07;65107.34;;;19.36;34.79
21879;BME280;27908;42.708;23.278;2023-04-15T12:50:34;65081.94;;;19.32;34.83
21879;BME280;27908;42.708;23.278;2023-04-15T12:52:59;65060.09;;;19.19;35.38
21879;BME280;27908;42.708;23.278;2023-04-15T12:55:25;65159.53;;;19.73;36.57
21879;BME280;27908;42.708;23.278;2023-04-15T12:57:50;65202.09;;;19.82;36.00
21879;BME280;27908;42.708;23.278;2023-04-15T13:00:16;65283.56;;;20.36;34.31
21879;BME280;27908;42.708;23.278;2023-04-15T13:02:44;65330.72;;;20.37;33.32
21879;BME280;27908;42.708;23.278;2023-04-15T13:05:10;65377.81;;;20.71;33.23